Time;durP1;ratioP1;P1;durP2;ratioP2;P2;SDS_P1;SDS_P2;PMS_P1;PMS_P2;Temp;Humidity;BMP_temperature;BMP_pressure;BME280_temperature;BME280_humidity;BME280_pressure;Samples;Min_cycle;Max_cycle;Signal;HPM_P1;HPM_P2
2022/04/06 00:01:53;;;;;;;7.53;3.40;;;11.00;99.90;;;;;;5002424;28;20050;-69
2022/04/06 00:04:20;;;;;;;7.00;3.83;;;11.00;99.80;;;;;;4990566;28;20127;-70
2022/04/06 00:06:45;;;;;;;5.93;3.15;;;10.90;99.70;;;;;;4999096;28;20168;-69
2022/04/06 00:09:12;;;;;;;7.55;3.25;;;10.90;99.80;;;;;;5013660;28;20121;-69
2022/04/06 00:11:38;;;;;;;7.13;3.08;;;10.90;99.70;;;;;;5015687;28;20472;-69
2022/04/06 00:14:05;;;;;;;7.00;3.20;;;10.90;99.50;;;;;;4997320;28;20148;-69
2022/04/06 00:16:31;;;;;;;7.63;3.00;;;10.90;99.50;;;;;;4998197;28;20035;-69
2022/04/06 00:18:57;;;;;;;6.38;3.05;;;10.90;99.40;;;;;;5017235;28;20342;-69
2022/04/06 00:21:25;;;;;;;6.55;3.28;;;10.90;99.30;;;;;;4996392;28;20535;-70
2022/04/06 00:23:51;;;;;;;7.15;3.42;;;11.00;99.30;;;;;;5014851;28;20044;-69
2022/04/06 00:26:17;;;;;;;7.25;2.92;;;10.90;99.60;;;;;;5016270;28;20030;-69
2022/04/06 00:28:43;;;;;;;7.18;3.47;;;10.90;99.80;;;;;;5017963;28;20092;-69
2022/04/06 00:31:09;;;;;;;8.18;3.70;;;10.90;99.90;;;;;;4998419;28;20038;-70
2022/04/06 00:33:36;;;;;;;7.20;3.53;;;10.90;99.90;;;;;;5004899;28;20409;-69
2022/04/06 00:36:02;;;;;;;7.90;3.60;;;10.90;99.90;;;;;;4999290;28;20440;-70
2022/04/06 00:38:27;;;;;;;8.10;3.42;;;11.00;99.90;;;;;;5001388;28;20034;-69
2022/04/06 00:40:54;;;;;;;8.77;3.40;;;11.00;99.90;;;;;;5014323;28;20069;-70
2022/04/06 00:43:20;;;;;;;5.53;3.33;;;11.00;99.80;;;;;;4996794;28;20053;-70
2022/04/06 00:45:46;;;;;;;6.15;3.28;;;11.10;99.50;;;;;;4999112;28;20046;-71
2022/04/06 00:48:13;;;;;;;8.48;3.65;;;11.10;99.10;;;;;;5004606;28;20037;-71
2022/04/06 00:50:41;;;;;;;5.97;3.10;;;11.10;98.90;;;;;;5015097;28;20150;-69
2022/04/06 00:53:08;;;;;;;5.97;3.13;;;11.10;98.80;;;;;;5014965;28;20395;-70
2022/04/06 00:55:37;;;;;;;6.85;3.13;;;11.10;98.80;;;;;;5016659;28;20038;-70
2022/04/06 00:58:04;;;;;;;7.13;3.22;;;11.10;98.70;;;;;;5019205;28;20575;-70
2022/04/06 01:00:31;;;;;;;7.53;2.92;;;11.10;98.70;;;;;;5031760;28;20057;-69
2022/04/06 01:02:57;;;;;;;7.15;3.10;;;11.10;98.70;;;;;;5019944;28;20080;-70
2022/04/06 01:05:25;;;;;;;7.72;3.45;;;11.10;98.60;;;;;;5030325;28;20104;-71
2022/04/06 01:07:53;;;;;;;8.85;3.60;;;11.10;98.50;;;;;;5037510;28;20038;-70
2022/04/06 01:10:20;;;;;;;5.65;3.15;;;11.20;98.40;;;;;;5034135;28;20049;-69
2022/04/06 01:12:48;;;;;;;6.25;3.15;;;11.10;98.40;;;;;;5002347;28;20145;-70
2022/04/06 01:15:15;;;;;;;6.43;3.22;;;11.20;98.40;;;;;;5017257;28;20140;-69
2022/04/06 01:17:42;;;;;;;6.95;3.05;;;11.20;98.30;;;;;;5019259;28;20383;-70
2022/04/06 01:20:11;;;;;;;5.47;3.30;;;11.20;98.40;;;;;;5003779;28;20436;-70
2022/04/06 01:22:38;;;;;;;6.40;3.67;;;11.20;98.50;;;;;;5004995;28;20042;-70
2022/04/06 01:25:06;;;;;;;6.68;3.65;;;11.20;98.60;;;;;;5032639;28;20595;-69
2022/04/06 01:27:32;;;;;;;9.00;3.50;;;11.20;98.80;;;;;;5023239;28;20042;-69
2022/04/06 01:29:58;;;;;;;8.60;4.00;;;11.20;99.00;;;;;;5020307;28;20049;-69
2022/04/06 01:32:26;;;;;;;10.85;4.22;;;11.20;99.20;;;;;;5032939;28;20059;-70
2022/04/06 01:34:57;;;;;;;9.15;4.00;;;11.30;99.50;;;;;;5020921;28;20053;-70
2022/04/06 01:37:24;;;;;;;9.57;3.92;;;11.20;99.60;;;;;;5016876;28;20503;-70
2022/04/06 01:39:50;;;;;;;8.32;4.30;;;11.30;99.70;;;;;;5033319;28;20038;-69
2022/04/06 01:42:18;;;;;;;12.13;4.88;;;11.30;99.80;;;;;;5022502;28;20103;-70
2022/04/06 01:44:46;;;;;;;9.70;4.28;;;11.30;99.80;;;;;;5008127;28;20099;-70
2022/04/06 01:47:15;;;;;;;9.57;4.22;;;11.30;99.80;;;;;;5021319;28;20223;-69
2022/04/06 01:52:26;;;;;;;9.75;4.40;;;11.40;99.80;;;;;;5020975;28;20043;-70
2022/04/06 01:54:54;;;;;;;6.75;4.13;;;11.40;99.80;;;;;;5033508;28;20077;-69
2022/04/06 01:57:21;;;;;;;6.97;4.15;;;11.40;99.90;;;;;;5019309;28;20029;-72
2022/04/06 01:59:47;;;;;;;6.72;4.22;;;11.30;99.90;;;;;;4985555;28;20046;-69
2022/04/06 02:02:18;;;;;;;7.35;4.03;;;11.30;99.90;;;;;;5020138;28;20045;-70
2022/04/06 02:04:45;;;;;;;11.15;4.38;;;11.40;99.90;;;;;;5033139;28;20441;-70
2022/04/06 02:07:13;;;;;;;11.90;4.70;;;11.40;99.90;;;;;;5015576;28;20042;-70
2022/04/06 02:09:40;;;;;;;9.20;4.35;;;11.40;99.90;;;;;;5036290;28;20073;-71
2022/04/06 02:12:11;;;;;;;7.70;4.20;;;11.50;99.90;;;;;;5018337;28;20038;-70
2022/04/06 02:14:42;;;;;;;7.40;4.80;;;11.50;99.90;;;;;;5021382;28;20044;-69
2022/04/06 02:17:09;;;;;;;14.40;4.47;;;11.50;99.90;;;;;;5019135;28;20180;-69
2022/04/06 02:19:39;;;;;;;11.57;4.35;;;11.40;99.90;;;;;;5017143;28;20104;-70
2022/04/06 02:22:06;;;;;;;12.55;4.65;;;11.40;99.90;;;;;;5027215;28;20116;-70
2022/04/06 02:24:33;;;;;;;8.55;4.53;;;11.50;99.80;;;;;;5016646;28;20048;-70
2022/04/06 02:27:00;;;;;;;11.00;4.18;;;11.50;99.80;;;;;;5036573;28;20505;-71
2022/04/06 02:29:27;;;;;;;9.48;4.47;;;11.50;99.90;;;;;;5014397;28;20480;-69
2022/04/06 02:31:53;;;;;;;9.63;4.93;;;11.50;99.80;;;;;;5018954;28;20082;-69
2022/04/06 02:34:19;;;;;;;11.15;4.93;;;11.60;99.70;;;;;;5017034;28;20033;-70
2022/04/06 02:36:45;;;;;;;11.77;5.32;;;11.60;99.80;;;;;;5012429;28;20053;-70
2022/04/06 02:39:12;;;;;;;9.40;4.45;;;11.60;99.70;;;;;;5019907;28;20037;-69
2022/04/06 02:41:37;;;;;;;8.70;4.55;;;11.60;99.60;;;;;;5015120;28;20046;-70
2022/04/06 02:44:05;;;;;;;11.70;5.18;;;11.60;99.40;;;;;;5032882;28;20374;-70
2022/04/06 02:46:33;;;;;;;9.88;4.40;;;11.70;99.50;;;;;;5003559;28;20090;-70
2022/04/06 02:48:58;;;;;;;6.82;4.50;;;11.70;99.40;;;;;;5020748;28;20064;-71
2022/04/06 02:51:24;;;;;;;10.90;4.93;;;11.70;99.40;;;;;;5014656;28;20555;-70
2022/04/06 02:53:50;;;;;;;9.63;3.92;;;11.80;99.40;;;;;;5002016;28;20156;-69
2022/04/06 02:56:16;;;;;;;9.23;4.30;;;11.80;99.10;;;;;;4999852;28;20473;-69
2022/04/06 02:58:42;;;;;;;8.40;4.63;;;11.80;98.80;;;;;;5018336;28;20666;-69
2022/04/06 03:01:09;;;;;;;8.18;4.25;;;11.80;98.70;;;;;;5029938;28;20038;-70
2022/04/06 03:03:35;;;;;;;10.13;4.22;;;11.70;98.60;;;;;;5020044;28;20041;-68
2022/04/06 03:06:02;;;;;;;11.25;4.65;;;11.70;99.00;;;;;;5032645;28;20551;-69
2022/04/06 03:08:29;;;;;;;12.02;4.63;;;11.70;99.10;;;;;;5016142;28;20037;-70
2022/04/06 03:10:54;;;;;;;10.30;5.20;;;11.70;99.10;;;;;;5019204;28;20091;-70
2022/04/06 03:13:20;;;;;;;9.23;4.45;;;11.70;99.10;;;;;;5016120;28;20116;-70
2022/04/06 03:15:46;;;;;;;13.32;6.28;;;11.70;99.10;;;;;;5015001;28;20034;-70
2022/04/06 03:18:12;;;;;;;10.75;5.88;;;11.70;99.10;;;;;;5015410;28;20034;-70
2022/04/06 03:20:39;;;;;;;10.38;5.25;;;11.70;99.10;;;;;;5011227;28;20037;-70
2022/04/06 03:23:06;;;;;;;10.77;5.47;;;11.70;99.00;;;;;;5023651;28;20119;-70
2022/04/06 03:25:33;;;;;;;10.90;5.30;;;11.60;99.00;;;;;;5038123;28;20048;-69
2022/04/06 03:28:00;;;;;;;11.18;5.65;;;11.60;99.10;;;;;;5001349;28;20092;-70
2022/04/06 03:30:27;;;;;;;9.68;5.10;;;11.60;99.10;;;;;;5021002;28;20622;-70
2022/04/06 03:32:53;;;;;;;13.60;5.53;;;11.70;99.20;;;;;;5036754;28;20053;-70
2022/04/06 03:35:20;;;;;;;13.38;6.10;;;11.70;98.60;;;;;;5021419;28;20037;-71
2022/04/06 03:37:46;;;;;;;11.68;5.70;;;11.60;98.80;;;;;;5001832;28;20480;-70
2022/04/06 03:40:13;;;;;;;9.73;4.60;;;11.60;98.80;;;;;;5020479;28;20040;-70
2022/04/06 03:42:39;;;;;;;9.20;5.32;;;11.70;98.80;;;;;;5037479;28;20139;-70
2022/04/06 03:45:07;;;;;;;11.65;5.57;;;11.60;98.80;;;;;;5018682;28;20038;-70
2022/04/06 03:47:34;;;;;;;14.20;5.32;;;11.70;99.00;;;;;;5020676;28;20597;-69
2022/04/06 03:50:01;;;;;;;9.02;4.93;;;11.70;99.00;;;;;;5003862;28;20088;-70
2022/04/06 03:52:27;;;;;;;10.68;4.80;;;11.60;98.50;;;;;;5022500;28;20489;-69
2022/04/06 03:54:54;;;;;;;8.85;5.00;;;11.60;98.60;;;;;;5032701;28;20033;-69
2022/04/06 03:57:21;;;;;;;9.18;4.10;;;11.60;98.20;;;;;;5036198;28;20033;-70
2022/04/06 03:59:47;;;;;;;9.48;4.38;;;11.60;97.80;;;;;;5038380;28;20065;-70
2022/04/06 04:02:13;;;;;;;7.30;4.05;;;11.60;97.70;;;;;;5019413;28;20459;-70
2022/04/06 04:04:39;;;;;;;7.60;4.15;;;11.70;97.60;;;;;;5007098;28;20082;-72
2022/04/06 04:07:09;;;;;;;9.27;4.50;;;11.60;97.60;;;;;;5023652;28;20068;-70
2022/04/06 04:09:36;;;;;;;8.02;4.22;;;11.70;97.70;;;;;;5020528;28;20083;-70
2022/04/06 04:12:03;;;;;;;12.07;4.57;;;11.70;97.70;;;;;;5005314;28;20563;-71
2022/04/06 04:14:32;;;;;;;7.70;4.50;;;11.50;97.80;;;;;;5037959;28;20046;-70
2022/04/06 04:17:01;;;;;;;9.23;4.18;;;11.50;97.90;;;;;;5021572;28;20049;-70
2022/04/06 04:19:28;;;;;;;8.20;4.50;;;11.50;97.80;;;;;;5019776;28;20038;-70
2022/04/06 04:21:54;;;;;;;6.85;4.03;;;11.50;97.60;;;;;;5022543;28;20045;-72
2022/04/06 04:24:20;;;;;;;7.75;4.47;;;11.60;97.70;;;;;;5018961;28;20041;-70
2022/04/06 04:26:47;;;;;;;7.97;4.63;;;11.60;97.90;;;;;;5004455;28;20030;-70
2022/04/06 04:29:13;;;;;;;11.30;4.80;;;11.50;97.70;;;;;;5024521;28;20037;-70
2022/04/06 04:31:39;;;;;;;7.25;4.75;;;11.50;97.60;;;;;;5003144;28;20052;-71
2022/04/06 04:34:06;;;;;;;8.50;4.60;;;11.50;97.70;;;;;;5021860;28;20145;-71
2022/04/06 04:36:32;;;;;;;10.50;4.75;;;11.50;97.70;;;;;;5034918;28;20114;-71
2022/04/06 04:38:58;;;;;;;9.07;4.97;;;11.60;97.80;;;;;;5038010;28;20115;-69
2022/04/06 04:41:24;;;;;;;9.15;5.13;;;11.60;97.70;;;;;;5022486;28;20033;-71
2022/04/06 04:43:51;;;;;;;10.63;4.90;;;11.60;97.70;;;;;;5021018;28;20034;-70
2022/04/06 04:46:18;;;;;;;9.38;4.90;;;11.60;97.80;;;;;;5035396;28;20516;-71
2022/04/06 04:48:45;;;;;;;8.35;4.95;;;11.50;97.90;;;;;;5005369;28;20365;-70
2022/04/06 04:51:12;;;;;;;7.70;4.60;;;11.60;98.00;;;;;;5018387;28;20545;-70
2022/04/06 04:53:39;;;;;;;8.75;4.68;;;11.60;98.10;;;;;;5020283;28;20060;-70
2022/04/06 04:56:05;;;;;;;9.68;4.82;;;11.50;98.00;;;;;;5016063;28;20034;-70
2022/04/06 04:58:31;;;;;;;9.60;5.03;;;11.60;98.10;;;;;;5017634;28;20401;-70
2022/04/06 05:00:58;;;;;;;11.40;4.70;;;11.60;97.90;;;;;;5023820;28;20046;-71
2022/04/06 05:03:24;;;;;;;14.63;5.10;;;11.50;97.90;;;;;;5030725;28;20443;-70
2022/04/06 05:05:53;;;;;;;11.98;5.35;;;11.50;97.90;;;;;;5043069;28;20041;-70
2022/04/06 05:08:23;;;;;;;9.68;4.65;;;11.50;97.90;;;;;;4998895;28;20069;-71
2022/04/06 05:10:50;;;;;;;8.95;5.38;;;11.50;98.00;;;;;;5033221;28;20049;-71
2022/04/06 05:13:17;;;;;;;8.13;4.88;;;11.50;98.20;;;;;;5012275;28;20037;-70
2022/04/06 05:15:44;;;;;;;13.95;5.47;;;11.40;98.30;;;;;;5036394;28;20608;-70
2022/04/06 05:18:11;;;;;;;7.60;5.00;;;11.50;98.70;;;;;;5032476;28;20048;-69
2022/04/06 05:20:37;;;;;;;13.35;5.50;;;11.50;98.50;;;;;;5004752;28;20483;-71
2022/04/06 05:23:03;;;;;;;11.02;5.55;;;11.50;98.50;;;;;;4981778;28;20121;-70
2022/04/06 05:25:29;;;;;;;9.32;5.25;;;11.50;98.50;;;;;;5014851;28;20052;-70
2022/04/06 05:27:56;;;;;;;8.55;5.22;;;11.40;98.50;;;;;;5031712;28;20044;-70
2022/04/06 05:30:24;;;;;;;8.63;5.30;;;11.30;98.70;;;;;;5016199;28;20091;-70
2022/04/06 05:32:52;;;;;;;10.85;5.70;;;11.30;98.90;;;;;;5020987;28;20124;-70
2022/04/06 05:35:19;;;;;;;12.63;5.65;;;11.20;99.00;;;;;;5037970;28;20203;-70
2022/04/06 05:37:46;;;;;;;13.77;5.38;;;11.20;99.30;;;;;;5039090;28;20088;-70
2022/04/06 05:40:14;;;;;;;10.43;5.97;;;11.20;99.40;;;;;;5011358;28;20100;-71
2022/04/06 05:42:40;;;;;;;12.32;5.95;;;11.10;99.50;;;;;;5017118;28;20052;-70
2022/04/06 05:45:08;;;;;;;10.10;5.35;;;11.10;99.70;;;;;;5032619;28;20041;-72
2022/04/06 05:47:34;;;;;;;11.25;5.88;;;11.10;99.90;;;;;;5021048;28;20052;-71
2022/04/06 05:50:01;;;;;;;20.63;5.32;;;11.10;99.80;;;;;;5021290;28;20046;-72
2022/04/06 05:52:27;;;;;;;11.70;5.90;;;11.10;99.80;;;;;;5022371;28;20057;-71
2022/04/06 05:54:53;;;;;;;10.18;5.85;;;11.10;99.80;;;;;;5020976;28;20033;-69
2022/04/06 05:57:20;;;;;;;9.57;5.55;;;11.10;99.80;;;;;;5022074;28;20045;-71
2022/04/06 05:59:47;;;;;;;12.55;6.22;;;11.10;99.70;;;;;;5022338;28;20093;-70
2022/04/06 06:02:14;;;;;;;10.75;5.80;;;11.10;99.90;;;;;;5031932;28;20489;-70
2022/04/06 06:04:42;;;;;;;11.95;6.00;;;11.00;99.90;;;;;;5000809;28;20104;-71
2022/04/06 06:07:08;;;;;;;11.55;6.35;;;11.00;99.90;;;;;;4995536;28;20536;-69
2022/04/06 06:09:35;;;;;;;14.85;6.53;;;11.00;99.90;;;;;;5001974;28;20050;-72
2022/04/06 06:12:03;;;;;;;14.00;6.55;;;11.00;99.90;;;;;;4983044;28;20034;-70
2022/04/06 06:14:30;;;;;;;12.30;6.55;;;11.00;99.90;;;;;;5006425;28;20043;-72
2022/04/06 06:17:00;;;;;;;11.95;6.07;;;11.00;99.90;;;;;;4983398;28;20037;-70
2022/04/06 06:19:26;;;;;;;13.50;6.18;;;11.00;99.90;;;;;;4980812;28;20073;-71
2022/04/06 06:21:53;;;;;;;13.02;6.68;;;11.00;99.90;;;;;;5013725;28;20037;-72
2022/04/06 06:24:21;;;;;;;14.25;7.15;;;11.00;99.90;;;;;;4996066;28;20504;-71
2022/04/06 06:26:48;;;;;;;14.77;7.20;;;11.00;99.90;;;;;;5013394;28;20523;-72
2022/04/06 06:29:14;;;;;;;12.35;6.97;;;11.00;99.90;;;;;;4999060;28;20041;-70
2022/04/06 06:31:40;;;;;;;12.60;6.60;;;11.10;99.90;;;;;;4998095;28;20085;-71
2022/04/06 06:34:07;;;;;;;15.15;7.40;;;11.10;99.90;;;;;;4995441;28;20046;-71
2022/04/06 06:36:33;;;;;;;16.65;7.00;;;11.10;99.90;;;;;;4997951;28;20042;-71
2022/04/06 06:39:00;;;;;;;12.68;7.18;;;11.10;99.90;;;;;;4999514;28;20521;-72
2022/04/06 06:41:26;;;;;;;14.82;7.72;;;11.10;99.90;;;;;;4971364;28;20053;-72
2022/04/06 06:43:54;;;;;;;16.88;7.00;;;11.20;99.90;;;;;;5004268;28;20047;-71
2022/04/06 06:46:21;;;;;;;13.57;7.72;;;11.30;99.90;;;;;;4983064;28;20202;-72
2022/04/06 06:48:49;;;;;;;16.83;7.93;;;11.40;99.90;;;;;;4992396;28;20041;-71
2022/04/06 06:51:16;;;;;;;13.90;7.50;;;11.40;99.90;;;;;;4980392;28;20212;-72
2022/04/06 06:53:44;;;;;;;16.63;7.47;;;11.40;99.90;;;;;;4998111;28;20088;-71
2022/04/06 06:56:10;;;;;;;16.08;8.52;;;11.60;99.90;;;;;;4997506;28;20049;-71
2022/04/06 06:58:37;;;;;;;16.10;7.80;;;11.60;99.90;;;;;;5034426;28;20046;-70
2022/04/06 07:01:03;;;;;;;17.10;8.82;;;11.70;99.90;;;;;;5012726;28;20077;-71
2022/04/06 07:03:29;;;;;;;15.82;8.57;;;11.80;99.90;;;;;;5019190;28;20069;-71
2022/04/06 07:05:55;;;;;;;24.08;8.73;;;11.90;99.90;;;;;;5023155;28;20897;-71
2022/04/06 07:08:22;;;;;;;19.98;8.35;;;12.10;99.90;;;;;;5020645;28;20534;-71
2022/04/06 07:10:48;;;;;;;16.95;8.50;;;12.20;99.90;;;;;;5016704;28;20397;-70
2022/04/06 07:13:16;;;;;;;16.48;8.75;;;12.40;99.90;;;;;;5021927;28;20034;-73
2022/04/06 07:15:43;;;;;;;15.57;8.90;;;12.50;99.90;;;;;;5037371;28;20037;-72
2022/04/06 07:18:12;;;;;;;17.20;9.10;;;12.60;99.90;;;;;;5021036;28;20069;-72
2022/04/06 07:20:40;;;;;;;19.38;9.15;;;12.80;99.90;;;;;;5002706;28;20034;-71
2022/04/06 07:23:07;;;;;;;13.27;8.55;;;12.70;99.70;;;;;;5035236;28;20382;-72
2022/04/06 07:25:33;;;;;;;17.42;9.02;;;12.60;99.90;;;;;;5007258;28;20685;-72
2022/04/06 07:28:00;;;;;;;17.52;9.82;;;12.70;99.90;;;;;;5023062;28;20080;-73
2022/04/06 07:30:26;;;;;;;16.17;9.68;;;12.70;99.80;;;;;;5032877;28;20053;-72
2022/04/06 07:32:56;;;;;;;17.58;9.40;;;12.90;99.60;;;;;;5024457;28;20046;-73
2022/04/06 07:35:22;;;;;;;18.50;8.73;;;13.10;99.30;;;;;;5023281;28;20045;-71
2022/04/06 07:37:50;;;;;;;12.88;7.25;;;13.30;98.70;;;;;;5024466;28;20045;-71
2022/04/06 07:40:26;;;;;;;14.45;6.82;;;13.50;97.10;;;;;;5035597;28;20061;-72
2022/04/06 07:42:52;;;;;;;13.40;7.72;;;13.80;96.60;;;;;;5021641;28;20047;-72
2022/04/06 07:45:20;;;;;;;16.50;9.60;;;14.10;96.40;;;;;;5017964;28;20494;-71
2022/04/06 07:47:48;;;;;;;21.92;10.07;;;14.10;97.10;;;;;;5006384;28;20053;-71
2022/04/06 07:50:15;;;;;;;16.52;10.07;;;14.00;97.40;;;;;;5003182;28;20033;-71
2022/04/06 07:52:43;;;;;;;15.30;7.78;;;14.30;97.30;;;;;;5007082;28;20100;-71
2022/04/06 07:55:11;;;;;;;14.93;9.02;;;14.50;95.80;;;;;;5004669;28;20253;-72
2022/04/06 07:57:37;;;;;;;12.82;7.25;;;14.70;95.90;;;;;;5024324;28;20469;-70
2022/04/06 08:00:10;;;;;;;13.57;7.22;;;14.60;95.00;;;;;;5019242;28;20497;-71
2022/04/06 08:02:38;;;;;;;10.68;6.90;;;14.60;94.50;;;;;;5018215;28;20084;-71
2022/04/06 08:05:05;;;;;;;16.85;8.18;;;14.70;94.50;;;;;;5019212;28;20121;-71
2022/04/06 08:07:32;;;;;;;16.15;8.77;;;14.60;95.20;;;;;;5037720;28;20429;-71
2022/04/06 08:09:58;;;;;;;18.15;8.80;;;14.70;95.40;;;;;;5038990;28;20037;-71
2022/04/06 08:12:25;;;;;;;16.52;7.60;;;14.90;95.30;;;;;;5003384;28;20030;-70
2022/04/06 08:14:51;;;;;;;15.02;7.65;;;14.90;94.80;;;;;;5018998;28;20044;-71
2022/04/06 08:17:17;;;;;;;14.43;7.30;;;15.00;94.70;;;;;;5019576;28;20038;-72
2022/04/06 08:19:43;;;;;;;14.13;6.50;;;15.10;93.90;;;;;;5020976;28;20543;-72
2022/04/06 08:22:10;;;;;;;9.95;6.22;;;15.40;93.30;;;;;;5002446;28;20416;-72
2022/04/06 08:24:36;;;;;;;16.83;7.68;;;15.50;92.80;;;;;;5023280;28;20980;-71
2022/04/06 08:27:03;;;;;;;15.07;8.43;;;15.40;92.90;;;;;;5036169;28;20025;-72
2022/04/06 08:29:28;;;;;;;20.88;8.63;;;15.30;93.30;;;;;;5024210;28;20034;-72
2022/04/06 08:31:56;;;;;;;18.27;10.57;;;15.20;93.60;;;;;;5017737;28;20042;-71
2022/04/06 08:34:22;;;;;;;21.50;11.07;;;15.30;93.60;;;;;;5002479;28;20208;-71
2022/04/06 08:36:48;;;;;;;23.58;10.90;;;15.50;93.20;;;;;;5020351;28;20098;-71
2022/04/06 08:39:14;;;;;;;17.25;10.25;;;16.10;92.80;;;;;;5020989;28;20033;-71
2022/04/06 08:41:41;;;;;;;19.73;10.13;;;16.70;92.40;;;;;;5021068;28;20042;-72
2022/04/06 08:44:09;;;;;;;20.58;9.63;;;17.60;91.40;;;;;;5021577;28;20052;-71
2022/04/06 08:46:37;;;;;;;19.30;9.52;;;17.50;90.80;;;;;;5019437;28;20488;-70
2022/04/06 08:49:04;;;;;;;16.23;10.10;;;18.00;90.50;;;;;;5033330;28;20045;-72
2022/04/06 08:51:33;;;;;;;23.17;10.15;;;17.50;90.40;;;;;;5019782;28;20033;-72
2022/04/06 08:54:00;;;;;;;16.30;9.07;;;17.40;90.40;;;;;;5036235;28;20030;-72
2022/04/06 08:56:26;;;;;;;21.95;10.60;;;17.10;90.20;;;;;;5033051;28;20073;-72
2022/04/06 08:58:52;;;;;;;15.13;9.40;;;17.20;90.50;;;;;;5038536;28;20079;-71
2022/04/06 09:01:21;;;;;;;16.85;10.02;;;17.10;90.30;;;;;;5021111;28;20394;-72
2022/04/06 09:03:49;;;;;;;16.90;9.65;;;16.60;90.40;;;;;;5021498;28;20385;-71
2022/04/06 09:06:14;;;;;;;15.85;9.35;;;16.50;90.50;;;;;;5018275;28;20493;-72
2022/04/06 09:08:46;;;;;;;19.17;10.20;;;16.40;90.90;;;;;;5033439;28;20044;-71
2022/04/06 09:11:15;;;;;;;18.73;9.93;;;16.30;90.80;;;;;;5013973;28;20397;-72
2022/04/06 09:13:43;;;;;;;21.92;10.15;;;16.50;90.90;;;;;;5021275;28;20100;-72
2022/04/06 09:16:14;;;;;;;17.95;11.32;;;16.70;90.90;;;;;;5033753;28;20033;-70
2022/04/06 09:18:50;;;;;;;15.57;10.75;;;16.80;90.60;;;;;;4999526;28;20053;-71
2022/04/06 09:21:19;;;;;;;23.08;11.55;;;17.10;90.70;;;;;;5021934;28;20038;-71
2022/04/06 09:23:50;;;;;;;17.52;10.43;;;17.50;90.50;;;;;;5018268;28;20401;-71
2022/04/06 09:26:20;;;;;;;20.70;10.70;;;18.30;90.00;;;;;;5016183;28;20369;-71
2022/04/06 09:28:48;;;;;;;18.20;11.50;;;18.90;87.90;;;;;;5016931;28;20046;-69
2022/04/06 09:31:16;;;;;;;20.40;11.25;;;19.60;86.50;;;;;;5001969;28;20042;-72
2022/04/06 09:33:55;;;;;;;16.50;10.15;;;21.20;85.40;;;;;;5020944;28;20547;-71
2022/04/06 09:36:21;;;;;;;15.57;9.77;;;21.50;81.40;;;;;;5033920;28;20068;-71
2022/04/06 09:38:50;;;;;;;20.15;9.38;;;21.10;81.30;;;;;;5020744;28;20068;-72
2022/04/06 09:41:18;;;;;;;14.55;9.18;;;21.40;80.60;;;;;;5016858;28;20726;-71
2022/04/06 09:43:46;;;;;;;18.13;9.60;;;20.90;79.10;;;;;;5002699;28;20037;-71
2022/04/06 09:49:08;;;;;;;20.75;10.23;;;19.80;81.10;;;;;;5022073;28;20083;-71
2022/04/06 09:51:40;;;;;;;16.85;10.05;;;19.90;81.70;;;;;;5017621;28;20489;-71
2022/04/06 09:54:08;;;;;;;15.27;7.55;;;20.30;81.40;;;;;;5020689;28;20037;-71
2022/04/06 09:56:35;;;;;;;21.80;10.52;;;20.50;80.50;;;;;;5036695;28;20037;-71
2022/04/06 09:59:03;;;;;;;21.77;11.23;;;20.00;81.40;;;;;;5032653;28;20528;-71
2022/04/06 10:01:34;;;;;;;13.80;9.80;;;19.90;82.30;;;;;;5001601;28;20481;-72
2022/04/06 10:04:05;;;;;;;16.27;7.63;;;20.30;81.20;;;;;;5018330;28;20034;-71
2022/04/06 10:06:39;;;;;;;11.93;6.90;;;19.60;79.80;;;;;;5019602;28;20580;-70
2022/04/06 10:09:07;;;;;;;11.43;6.00;;;19.80;80.00;;;;;;5018119;28;20519;-72
2022/04/06 10:11:38;;;;;;;14.32;7.28;;;19.90;79.30;;;;;;5018328;28;20055;-71
2022/04/06 10:14:08;;;;;;;12.93;8.52;;;19.60;79.70;;;;;;5014398;28;20092;-71
2022/04/06 10:16:38;;;;;;;11.95;5.70;;;19.40;80.80;;;;;;5034357;28;20042;-72
2022/04/06 10:19:07;;;;;;;13.45;7.60;;;19.20;78.70;;;;;;5032148;28;20061;-72
2022/04/06 10:21:45;;;;;;;11.13;4.93;;;19.80;80.30;;;;;;5022179;28;20067;-72
2022/04/06 10:24:47;;;;;;;9.77;6.30;;;20.20;77.40;;;;;;5029188;28;20034;-72
2022/04/06 10:27:41;;;;;;;6.82;4.35;;;20.00;77.40;;;;;;5018729;28;20047;-72
2022/04/06 10:30:17;;;;;;;11.77;4.28;;;19.30;76.20;;;;;;5017372;28;20056;-72
2022/04/06 10:32:51;;;;;;;10.93;6.10;;;19.50;76.50;;;;;;5017553;28;20033;-72
2022/04/06 10:35:30;;;;;;;9.35;5.97;;;19.40;77.40;;;;;;5029082;28;20037;-72
2022/04/06 10:37:58;;;;;;;10.52;6.40;;;20.10;77.20;;;;;;5030655;28;20109;-72
2022/04/06 10:40:31;;;;;;;8.48;5.35;;;21.10;77.00;;;;;;5000489;28;20042;-71
2022/04/06 10:42:58;;;;;;;10.50;5.47;;;21.50;75.00;;;;;;5016556;28;20045;-72
2022/04/06 10:45:28;;;;;;;7.47;4.72;;;21.30;74.60;;;;;;5033469;28;20121;-72
2022/04/06 10:48:12;;;;;;;6.60;3.65;;;21.80;73.70;;;;;;5000950;28;20038;-72
2022/04/06 10:50:41;;;;;;;11.02;5.00;;;21.90;72.90;;;;;;5017081;28;20921;-73
2022/04/06 10:53:19;;;;;;;14.80;5.60;;;22.00;72.80;;;;;;5017566;28;20662;-71
2022/04/06 10:56:01;;;;;;;9.93;4.80;;;21.60;73.70;;;;;;5005037;28;20046;-72
2022/04/06 10:58:27;;;;;;;8.75;5.38;;;22.10;73.30;;;;;;5015763;28;20062;-71
2022/04/06 11:01:16;;;;;;;11.02;5.38;;;21.80;73.00;;;;;;5018373;28;20057;-72
2022/04/06 11:03:55;;;;;;;12.27;6.03;;;21.00;73.30;;;;;;5019209;28;20100;-72
2022/04/06 11:06:55;;;;;;;8.77;4.93;;;21.10;73.70;;;;;;5003461;28;20121;-73
2022/04/06 11:12:34;;;;;;;5.70;3.67;;;21.40;73.50;;;;;;5017659;28;20108;-71
2022/04/06 11:15:01;;;;;;;8.05;3.35;;;20.90;72.40;;;;;;5021012;28;20038;-71
2022/04/06 11:17:32;;;;;;;7.35;3.85;;;20.90;72.80;;;;;;4997365;28;20036;-72
2022/04/06 11:20:00;;;;;;;7.15;4.07;;;20.30;73.30;;;;;;4998506;28;20068;-73
2022/04/06 11:22:26;;;;;;;10.63;4.18;;;20.90;73.30;;;;;;5031854;28;20496;-71
2022/04/06 11:24:56;;;;;;;10.80;4.80;;;21.20;72.70;;;;;;5030874;28;20025;-72
2022/04/06 11:27:32;;;;;;;7.40;4.55;;;22.00;71.90;;;;;;5038222;28;20122;-72
2022/04/06 11:30:03;;;;;;;6.68;4.45;;;22.60;71.60;;;;;;5020945;28;20037;-74
2022/04/06 11:32:29;;;;;;;7.07;4.55;;;22.00;71.50;;;;;;5018440;28;20038;-74
2022/04/06 11:35:04;;;;;;;7.40;5.10;;;22.60;71.40;;;;;;5032379;28;20049;-73
2022/04/06 11:37:31;;;;;;;11.38;4.85;;;22.50;71.20;;;;;;5030870;28;20053;-73
2022/04/06 11:40:01;;;;;;;10.85;4.60;;;23.10;71.00;;;;;;4994238;28;20034;-72
2022/04/06 11:42:27;;;;;;;10.73;4.57;;;22.00;70.30;;;;;;4991514;28;20041;-72
2022/04/06 11:44:54;;;;;;;8.20;4.93;;;22.20;71.40;;;;;;5018486;28;20121;-72
2022/04/06 11:47:31;;;;;;;7.78;5.22;;;22.50;70.90;;;;;;5019711;28;20413;-73
2022/04/06 11:49:58;;;;;;;8.55;4.72;;;22.20;71.40;;;;;;5026185;28;20038;-72
2022/04/06 11:52:24;;;;;;;9.52;5.18;;;22.40;71.10;;;;;;5007413;28;20081;-72
2022/04/06 11:54:52;;;;;;;13.70;5.80;;;21.00;72.40;;;;;;5009104;28;20045;-72
2022/04/06 11:57:18;;;;;;;9.25;5.70;;;20.30;73.80;;;;;;5011050;28;20073;-73
2022/04/06 11:59:54;;;;;;;11.18;5.38;;;19.90;74.10;;;;;;5036637;28;20064;-72
2022/04/06 12:02:22;;;;;;;9.70;5.38;;;20.20;74.60;;;;;;5016980;28;20049;-71
2022/04/06 12:05:03;;;;;;;10.30;5.43;;;20.10;74.30;;;;;;5025627;28;20060;-71
2022/04/06 12:07:29;;;;;;;11.80;4.72;;;20.30;74.20;;;;;;5005075;28;20437;-74
2022/04/06 12:09:55;;;;;;;8.43;4.43;;;20.30;74.10;;;;;;5020343;28;20056;-71
2022/04/06 12:12:23;;;;;;;10.25;5.43;;;19.60;73.80;;;;;;5025856;28;20388;-74
2022/04/06 12:14:52;;;;;;;7.53;4.43;;;19.50;74.90;;;;;;5023624;28;20492;-71
2022/04/06 12:17:19;;;;;;;8.05;4.43;;;19.40;74.70;;;;;;5019528;28;20107;-72
2022/04/06 12:19:47;;;;;;;8.50;5.22;;;19.00;74.80;;;;;;5004402;28;20136;-72
2022/04/06 12:22:14;;;;;;;6.97;4.45;;;19.20;75.70;;;;;;5021761;28;20462;-72
2022/04/06 12:24:44;;;;;;;9.60;4.55;;;19.20;74.80;;;;;;5038545;28;20040;-73
2022/04/06 12:27:28;;;;;;;8.25;4.07;;;20.50;74.70;;;;;;5017243;28;20062;-72
2022/04/06 12:30:08;;;;;;;13.43;4.38;;;21.60;73.30;;;;;;5043727;28;20438;-73
2022/04/06 12:32:42;;;;;;;6.47;4.00;;;22.50;72.50;;;;;;5036355;28;20451;-72
2022/04/06 12:35:25;;;;;;;7.28;4.88;;;22.40;70.80;;;;;;4996957;28;20115;-72
2022/04/06 12:37:52;;;;;;;11.07;5.18;;;21.80;71.10;;;;;;5031840;28;20535;-71
2022/04/06 12:40:25;;;;;;;7.95;5.32;;;21.00;71.80;;;;;;5041609;28;20064;-72
2022/04/06 12:42:53;;;;;;;7.15;4.53;;;20.20;72.90;;;;;;5034116;28;20041;-72
2022/04/06 12:45:21;;;;;;;9.70;5.10;;;20.50;72.80;;;;;;5024390;28;20141;-72
2022/04/06 12:47:47;;;;;;;9.68;5.47;;;20.80;73.00;;;;;;5037890;28;21006;-72
2022/04/06 12:50:19;;;;;;;11.85;5.55;;;20.50;72.90;;;;;;5006856;28;20029;-74
2022/04/06 12:53:10;;;;;;;7.85;4.30;;;19.40;74.20;;;;;;5021815;28;20038;-72
2022/04/06 12:55:36;;;;;;;15.93;5.75;;;20.30;74.40;;;;;;5032363;28;20124;-73